<?xml version="1.0" encoding="UTF-8" standalone="no" ?>
<gpx xmlns="http://www.topografix.com/GPX/1/1" xmlns:xsi="http://www.w3.org/2001/XMLSchema-instance" xsi:schemaLocation="http://www.topografix.com/GPX/1/1 http://www.topografix.com/GPX/1/1/gpx.xsd" version="1.1" creator="VisuGPX - https://www.visugpx.com">
  <metadata>
    <name>Raid VTT IFV 2022 de l'enfer</name>
    <desc><![CDATA[Tracé du raid avec le découpage en segments de guidage individuels avec thème d'animation imposé]]></desc>
  </metadata>
  <trk>
    <name><![CDATA[J1 - RUN 5 - Gabriel]]></name>
    <desc><![CDATA[Tech VTT : Les pneus]]></desc>
    <extensions>
      <line xmlns="http://www.topografix.com/GPX/gpx_style/0/2">
        <color>FFFF00</color>
        <width>4</width>
          <extensions>
            <sens>1</sens>
          </extensions>
      </line>
    </extensions>
    <trkseg>
      <trkpt lat="44.07452" lon="6.58896">
        <ele>1456</ele>
        <time>2021-11-15T19:06:22Z</time>
      </trkpt>
      <trkpt lat="44.07453" lon="6.58877">
        <ele>1457</ele>
        <time>2021-11-15T19:06:25Z</time>
      </trkpt>
      <trkpt lat="44.07456" lon="6.58875">
        <ele>1458</ele>
        <time>2021-11-15T19:06:26Z</time>
      </trkpt>
      <trkpt lat="44.07461" lon="6.58891">
        <ele>1461</ele>
        <time>2021-11-15T19:06:29Z</time>
      </trkpt>
      <trkpt lat="44.07464" lon="6.58954">
        <ele>1453</ele>
        <time>2021-11-15T19:06:39Z</time>
      </trkpt>
      <trkpt lat="44.07467" lon="6.58966">
        <ele>1451</ele>
        <time>2021-11-15T19:06:41Z</time>
      </trkpt>
      <trkpt lat="44.07472" lon="6.58972">
        <ele>1452</ele>
        <time>2021-11-15T19:06:43Z</time>
      </trkpt>
      <trkpt lat="44.07556" lon="6.58996">
        <ele>1474</ele>
        <time>2021-11-15T19:07:03Z</time>
      </trkpt>
      <trkpt lat="44.07582" lon="6.58989">
        <ele>1485</ele>
        <time>2021-11-15T19:07:09Z</time>
      </trkpt>
      <trkpt lat="44.0761" lon="6.58972">
        <ele>1498</ele>
        <time>2021-11-15T19:07:16Z</time>
      </trkpt>
      <trkpt lat="44.07629" lon="6.58966">
        <ele>1504</ele>
        <time>2021-11-15T19:07:21Z</time>
      </trkpt>
      <trkpt lat="44.07644" lon="6.58967">
        <ele>1506</ele>
        <time>2021-11-15T19:07:24Z</time>
      </trkpt>
      <trkpt lat="44.07669" lon="6.58959">
        <ele>1513</ele>
        <time>2021-11-15T19:07:30Z</time>
      </trkpt>
      <trkpt lat="44.0768" lon="6.58964">
        <ele>1515</ele>
        <time>2021-11-15T19:07:33Z</time>
      </trkpt>
      <trkpt lat="44.07673" lon="6.58992">
        <ele>1500</ele>
        <time>2021-11-15T19:07:38Z</time>
      </trkpt>
      <trkpt lat="44.07673" lon="6.59008">
        <ele>1496</ele>
        <time>2021-11-15T19:07:41Z</time>
      </trkpt>
      <trkpt lat="44.07677" lon="6.59025">
        <ele>1496</ele>
        <time>2021-11-15T19:07:44Z</time>
      </trkpt>
      <trkpt lat="44.07726" lon="6.59098">
        <ele>1511</ele>
        <time>2021-11-15T19:08:00Z</time>
      </trkpt>
      <trkpt lat="44.07737" lon="6.59122">
        <ele>1512</ele>
        <time>2021-11-15T19:08:05Z</time>
      </trkpt>
      <trkpt lat="44.07738" lon="6.59139">
        <ele>1510</ele>
        <time>2021-11-15T19:08:08Z</time>
      </trkpt>
      <trkpt lat="44.07759" lon="6.59155">
        <ele>1513</ele>
        <time>2021-11-15T19:08:14Z</time>
      </trkpt>
      <trkpt lat="44.07816" lon="6.59182">
        <ele>1523</ele>
        <time>2021-11-15T19:08:28Z</time>
      </trkpt>
      <trkpt lat="44.07854" lon="6.59192">
        <ele>1532</ele>
        <time>2021-11-15T19:08:37Z</time>
      </trkpt>
      <trkpt lat="44.07873" lon="6.59192">
        <ele>1537</ele>
        <time>2021-11-15T19:08:41Z</time>
      </trkpt>
      <trkpt lat="44.0789" lon="6.59202">
        <ele>1541</ele>
        <time>2021-11-15T19:08:45Z</time>
      </trkpt>
      <trkpt lat="44.07892" lon="6.5921">
        <ele>1541</ele>
        <time>2021-11-15T19:08:47Z</time>
      </trkpt>
      <trkpt lat="44.07862" lon="6.59245">
        <ele>1527</ele>
        <time>2021-11-15T19:08:56Z</time>
      </trkpt>
      <trkpt lat="44.0785" lon="6.59263">
        <ele>1523</ele>
        <time>2021-11-15T19:09:00Z</time>
      </trkpt>
      <trkpt lat="44.0783" lon="6.59283">
        <ele>1518</ele>
        <time>2021-11-15T19:09:06Z</time>
      </trkpt>
      <trkpt lat="44.07817" lon="6.59292">
        <ele>1515</ele>
        <time>2021-11-15T19:09:09Z</time>
      </trkpt>
      <trkpt lat="44.07819" lon="6.59309">
        <ele>1516</ele>
        <time>2021-11-15T19:09:12Z</time>
      </trkpt>
      <trkpt lat="44.07854" lon="6.59343">
        <ele>1529</ele>
        <time>2021-11-15T19:09:22Z</time>
      </trkpt>
      <trkpt lat="44.07867" lon="6.59377">
        <ele>1534</ele>
        <time>2021-11-15T19:09:29Z</time>
      </trkpt>
      <trkpt lat="44.07887" lon="6.59416">
        <ele>1539</ele>
        <time>2021-11-15T19:09:37Z</time>
      </trkpt>
      <trkpt lat="44.07891" lon="6.5942">
        <ele>1537.47265625</ele>
      </trkpt>
      <trkpt lat="44.07932" lon="6.59469">
        <ele>1544.3203125</ele>
      </trkpt>
      <trkpt lat="44.0794" lon="6.59525">
        <ele>1552.9921875</ele>
      </trkpt>
      <trkpt lat="44.07932" lon="6.59469">
        <ele>1544.3203125</ele>
      </trkpt>
      <trkpt lat="44.0794" lon="6.59525">
        <ele>1552.9921875</ele>
      </trkpt>
      <trkpt lat="44.07906" lon="6.59718">
        <ele>1584.5625</ele>
      </trkpt>
      <trkpt lat="44.0791" lon="6.59763">
        <ele>1589.65625</ele>
      </trkpt>
      <trkpt lat="44.07932" lon="6.59804">
        <ele>1602.046875</ele>
      </trkpt>
      <trkpt lat="44.07919" lon="6.59828">
        <ele>1600.65625</ele>
      </trkpt>
      <trkpt lat="44.07805" lon="6.59802">
        <ele>1572.4453125</ele>
      </trkpt>
      <trkpt lat="44.07786" lon="6.59798">
        <ele>1570.35546875</ele>
      </trkpt>
      <trkpt lat="44.07766" lon="6.598">
        <ele>1570.40625</ele>
      </trkpt>
      <trkpt lat="44.07747" lon="6.59798">
        <ele>1570.2265625</ele>
      </trkpt>
      <trkpt lat="44.07627" lon="6.59796">
        <ele>1574.71875</ele>
      </trkpt>
      <trkpt lat="44.07541" lon="6.59817">
        <ele>1581.41796875</ele>
      </trkpt>
      <trkpt lat="44.07483" lon="6.59836">
        <ele>1585.4765625</ele>
      </trkpt>
      <trkpt lat="44.07447" lon="6.59854">
        <ele>1587.73828125</ele>
      </trkpt>
      <trkpt lat="44.07419" lon="6.5986">
        <ele>1588.8046875</ele>
      </trkpt>
      <trkpt lat="44.07406" lon="6.59862">
        <ele>1589.17578125</ele>
      </trkpt>
      <trkpt lat="44.07397" lon="6.59875">
        <ele>1590.17578125</ele>
      </trkpt>
      <trkpt lat="44.07366" lon="6.59839">
        <ele>1591.3046875</ele>
      </trkpt>
      <trkpt lat="44.07335" lon="6.59802">
        <ele>1590.25390625</ele>
      </trkpt>
      <trkpt lat="44.07241" lon="6.59731">
        <ele>1591.27734375</ele>
      </trkpt>
      <trkpt lat="44.07204" lon="6.59712">
        <ele>1590.53125</ele>
      </trkpt>
      <trkpt lat="44.07176" lon="6.59705">
        <ele>1591.87890625</ele>
      </trkpt>
      <trkpt lat="44.07116" lon="6.59703">
        <ele>1593.08203125</ele>
      </trkpt>
      <trkpt lat="44.07105" lon="6.59705">
        <ele>1593.3359375</ele>
      </trkpt>
      <trkpt lat="44.07078" lon="6.59718">
        <ele>1593.1796875</ele>
      </trkpt>
      <trkpt lat="44.0699" lon="6.59731">
        <ele>1586.7890625</ele>
      </trkpt>
      <trkpt lat="44.06946" lon="6.59766">
        <ele>1579.91796875</ele>
      </trkpt>
      <trkpt lat="44.0699" lon="6.59731">
        <ele>1586.7890625</ele>
      </trkpt>
      <trkpt lat="44.06906" lon="6.59798">
        <ele>1569.6015625</ele>
      </trkpt>
      <trkpt lat="44.06781" lon="6.5992">
        <ele>1547.48046875</ele>
      </trkpt>
      <trkpt lat="44.06556" lon="6.60055">
        <ele>1507.078125</ele>
      </trkpt>
      <trkpt lat="44.06515" lon="6.60132">
        <ele>1496.9296875</ele>
      </trkpt>
      <trkpt lat="44.06484" lon="6.60226">
        <ele>1505.05859375</ele>
      </trkpt>
    </trkseg>
  </trk>
</gpx>